Gravette, Arkansas
Current Conditions -  °F | °C
As of 2:53 PM on Friday 19 Dec 2014 (Local Time) from KXNA Reporting Station
Overcast Overcast  
Wind Chill: 42°   Ceiling: 1000
Heat Index: 42°   Visibility: 7mi
Dew Point: 40°   Wind: 3mph
Humidity: 92%   Direction: 20°NNE
Pressure: 30.17"   Gusts: NA
Location:  36.42°N, 94.45°W
Report Text: KXNA 192053Z 02003KT 7SM OVC010 06/04 A3017 RMK AO2 CIG 005V011 SLP218 T00560044 55017
Loading
Personal Weather Stations






























Interactive Weather Map New forecast layout! Learn more

10-Day Weather Forecast

Advertisements
Track Severe Weather on mobile